Time;durP1;ratioP1;P1;durP2;ratioP2;P2;SDS_P1;SDS_P2;PMS_P1;PMS_P2;Temp;Humidity;BMP_temperature;BMP_pressure;BME280_temperature;BME280_humidity;BME280_pressure;Samples;Min_cycle;Max_cycle;Signal;HPM_P1;HPM_P2
2021/07/08 00:00:20;;;;;;;8.80;3.72;;;;;;;17.50;100.00;101655.53;6288079;28;20048;-75
2021/07/08 00:03:22;;;;;;;7.32;3.78;;;;;;;17.51;100.00;101657.22;6289907;28;20041;-75
2021/07/08 00:06:23;;;;;;;9.68;3.60;;;;;;;17.48;100.00;101652.97;6302210;28;20052;-74
2021/07/08 00:09:24;;;;;;;5.85;3.30;;;;;;;17.47;100.00;101653.06;6302161;28;20048;-75
2021/07/08 00:12:27;;;;;;;5.65;3.58;;;;;;;17.45;100.00;101647.03;6302058;28;20052;-74
2021/07/08 00:15:29;;;;;;;15.52;3.60;;;;;;;17.44;100.00;101647.97;6302322;28;20056;-75
2021/07/08 00:18:31;;;;;;;8.38;3.25;;;;;;;17.46;100.00;101649.56;6303081;28;20504;-74
2021/07/08 00:21:32;;;;;;;6.57;3.22;;;;;;;17.46;100.00;101649.56;6302208;28;20047;-74
2021/07/08 00:24:34;;;;;;;4.22;2.92;;;;;;;17.43;100.00;101644.44;6302010;28;20045;-75
2021/07/08 00:27:37;;;;;;;8.82;3.55;;;;;;;17.42;100.00;101644.56;6300799;28;20048;-75
2021/07/08 00:30:38;;;;;;;11.57;4.20;;;;;;;17.40;100.00;101652.66;6300091;28;20056;-75
2021/07/08 00:33:40;;;;;;;12.65;4.80;;;;;;;17.36;100.00;101648.50;6300799;28;20056;-75
2021/07/08 00:36:41;;;;;;;8.25;4.10;;;;;;;17.34;100.00;101650.38;6300257;28;20048;-76
2021/07/08 00:39:43;;;;;;;12.32;4.13;;;;;;;17.32;100.00;101656.78;6300430;28;20048;-75
2021/07/08 00:42:46;;;;;;;10.40;4.18;;;;;;;17.32;100.00;101654.13;6299856;28;20044;-76
2021/07/08 00:45:48;;;;;;;12.15;4.35;;;;;;;17.25;100.00;101651.00;6299842;28;20048;-74
2021/07/08 00:48:49;;;;;;;15.40;4.30;;;;;;;17.27;100.00;101650.94;6301062;28;20052;-76
2021/07/08 00:51:51;;;;;;;11.93;4.80;;;;;;;17.30;100.00;101643.56;6301298;28;20049;-77
2021/07/08 00:54:52;;;;;;;12.88;4.80;;;;;;;17.30;100.00;101643.56;6300298;28;20063;-74
2021/07/08 00:57:55;;;;;;;11.23;4.53;;;;;;;17.32;100.00;101639.03;6297631;28;20059;-76
2021/07/08 01:00:57;;;;;;;11.07;5.22;;;;;;;17.29;100.00;101641.88;6298338;28;20048;-76
2021/07/08 01:03:59;;;;;;;10.43;4.32;;;;;;;17.29;100.00;101649.00;6297990;28;20049;-77
2021/07/08 01:07:00;;;;;;;14.15;4.57;;;;;;;17.25;100.00;101632.41;6297356;28;20392;-77
2021/07/08 01:10:01;;;;;;;11.98;4.00;;;;;;;17.23;100.00;101632.53;6295342;28;20736;-74
2021/07/08 01:13:05;;;;;;;10.60;3.47;;;;;;;17.17;100.00;101624.13;6295840;28;20499;-77
2021/07/08 01:16:06;;;;;;;11.90;3.50;;;;;;;17.13;100.00;101634.09;6295604;28;20044;-74
2021/07/08 01:19:08;;;;;;;10.65;4.05;;;;;;;17.12;100.00;101631.53;6295640;28;20459;-77
2021/07/08 01:22:11;;;;;;;9.07;3.53;;;;;;;17.08;100.00;101630.03;6295722;28;20503;-77
2021/07/08 01:25:14;;;;;;;10.55;3.30;;;;;;;17.04;100.00;101628.56;6295806;28;20045;-77
2021/07/08 01:28:15;;;;;;;11.95;4.03;;;;;;;16.98;100.00;101632.44;6295361;28;20052;-76
2021/07/08 01:31:17;;;;;;;9.18;3.67;;;;;;;16.92;100.00;101635.50;6295067;28;20439;-75
2021/07/08 01:34:18;;;;;;;9.38;3.30;;;;;;;16.93;100.00;101637.22;6295427;28;20052;-75
2021/07/08 01:37:21;;;;;;;11.95;3.70;;;;;;;16.86;100.00;101639.44;6295127;28;20051;-77
2021/07/08 01:40:22;;;;;;;13.48;3.75;;;;;;;16.83;100.00;101636.13;6294870;28;20052;-75
2021/07/08 01:43:24;;;;;;;8.40;3.88;;;;;;;16.83;100.00;101636.97;6295068;28;20048;-76
2021/07/08 01:46:25;;;;;;;12.95;3.75;;;;;;;16.82;100.00;101637.94;6295702;28;20507;-77
2021/07/08 01:49:27;;;;;;;7.30;3.75;;;;;;;16.79;100.00;101622.19;6295136;28;20048;-76
2021/07/08 01:52:29;;;;;;;6.95;3.25;;;;;;;16.79;100.00;101624.84;6295238;28;20060;-77
2021/07/08 01:55:31;;;;;;;10.13;4.00;;;;;;;16.79;100.00;101629.31;6295054;28;20056;-77
2021/07/08 01:58:32;;;;;;;6.20;3.75;;;;;;;16.78;100.00;101625.81;6295198;28;20048;-77
2021/07/08 02:01:34;;;;;;;7.75;3.55;;;;;;;16.79;100.00;101629.31;6294715;28;20412;-77
2021/07/08 02:04:35;;;;;;;9.95;3.35;;;;;;;16.75;100.00;101633.94;6294851;28;20055;-76
2021/07/08 02:07:39;;;;;;;12.50;3.97;;;;;;;16.81;100.00;101636.22;6295031;28;20143;-76
2021/07/08 02:10:41;;;;;;;5.93;3.53;;;;;;;16.81;100.00;101630.91;6294323;28;20049;-75
2021/07/08 02:13:42;;;;;;;7.07;3.42;;;;;;;16.82;100.00;101615.84;6294873;28;20049;-76
2021/07/08 02:16:44;;;;;;;9.23;3.88;;;;;;;16.82;100.00;101635.28;6294857;28;20048;-75
2021/07/08 02:19:45;;;;;;;5.03;2.75;;;;;;;16.89;100.00;101651.63;6294649;28;20052;-75
2021/07/08 02:22:49;;;;;;;11.23;3.25;;;;;;;16.91;100.00;101660.38;6294567;28;20057;-75
2021/07/08 02:25:50;;;;;;;11.70;4.07;;;;;;;16.83;100.00;101652.06;6294755;28;20055;-76
2021/07/08 02:28:52;;;;;;;16.83;3.97;;;;;;;16.94;100.00;101662.81;6296681;28;20056;-75
2021/07/08 02:31:54;;;;;;;11.90;3.70;;;;;;;16.84;100.00;101659.06;6299341;28;20044;-76
2021/07/08 02:34:56;;;;;;;6.95;3.60;;;;;;;16.77;100.00;101652.47;6299190;28;20491;-76
2021/07/08 02:37:59;;;;;;;10.10;3.50;;;;;;;16.82;100.00;101658.31;6299245;28;20053;-76
2021/07/08 02:41:00;;;;;;;7.10;3.28;;;;;;;16.83;100.00;101655.56;6298812;28;20435;-76
2021/07/08 02:44:02;;;;;;;10.85;4.13;;;;;;;16.89;100.00;101654.28;6298807;28;20052;-76
2021/07/08 02:47:04;;;;;;;8.48;3.40;;;;;;;16.91;100.00;101658.56;6299083;28;20045;-76
2021/07/08 02:50:07;;;;;;;8.30;3.60;;;;;;;16.92;100.00;101659.41;6298518;28;20495;-76
2021/07/08 02:53:10;;;;;;;15.45;3.90;;;;;;;16.89;100.00;101663.09;6299085;28;20068;-76
2021/07/08 02:56:12;;;;;;;9.57;3.95;;;;;;;16.88;100.00;101657.91;6298673;28;20052;-76
2021/07/08 02:59:13;;;;;;;12.88;4.10;;;;;;;16.87;100.00;101657.06;6298931;28;20055;-76
2021/07/08 03:02:14;;;;;;;15.68;4.50;;;;;;;16.80;100.00;101653.09;6298456;28;20566;-76
2021/07/08 03:05:17;;;;;;;8.45;3.92;;;;;;;16.78;100.00;101652.34;6299686;28;20052;-76
2021/07/08 03:08:19;;;;;;;7.38;3.53;;;;;;;16.72;100.00;101652.75;6299469;28;20057;-76
2021/07/08 03:11:23;;;;;;;7.72;3.83;;;;;;;16.74;100.00;101661.47;6299451;28;20044;-76
2021/07/08 03:14:24;;;;;;;17.60;4.15;;;;;;;16.71;100.00;101659.84;6299417;28;20141;-76
2021/07/08 03:17:26;;;;;;;10.88;4.03;;;;;;;16.74;100.00;101661.47;6299808;28;20057;-76
2021/07/08 03:20:30;;;;;;;9.50;3.78;;;;;;;16.79;100.00;101663.81;6299128;28;20055;-75
2021/07/08 03:23:34;;;;;;;13.88;3.95;;;;;;;16.79;100.00;101666.47;6299297;28;20048;-76
2021/07/08 03:26:36;;;;;;;8.52;4.10;;;;;;;16.78;100.00;101654.16;6299265;28;20079;-76
2021/07/08 03:29:37;;;;;;;12.93;4.32;;;;;;;16.70;100.00;101652.81;6298945;28;20044;-74
2021/07/08 03:32:39;;;;;;;7.20;3.17;;;;;;;16.71;100.00;101661.63;6298986;28;20056;-76
2021/07/08 03:35:41;;;;;;;11.65;4.25;;;;;;;16.66;100.00;101661.91;6298934;28;20530;-76
2021/07/08 03:38:43;;;;;;;13.57;3.60;;;;;;;16.69;100.00;101675.00;6298936;28;20055;-76
2021/07/08 03:41:45;;;;;;;13.63;3.83;;;;;;;16.71;100.00;101665.16;6297455;28;20053;-75
2021/07/08 03:44:46;;;;;;;7.40;3.70;;;;;;;16.69;100.00;101656.41;6298639;28;20521;-76
2021/07/08 03:47:47;;;;;;;17.80;5.20;;;;;;;16.75;100.00;101663.16;6298875;28;20059;-76
2021/07/08 03:50:49;;;;;;;16.25;4.85;;;;;;;16.81;100.00;101669.91;6298200;28;20048;-75
2021/07/08 03:53:52;;;;;;;9.82;4.38;;;;;;;16.85;100.00;101680.22;6298705;28;20052;-76
2021/07/08 03:56:53;;;;;;;12.60;4.10;;;;;;;16.86;100.00;101681.06;6298360;28;20052;-76
2021/07/08 03:59:54;;;;;;;14.95;5.35;;;;;;;16.88;100.00;101690.63;6298198;28;20051;-75
2021/07/08 04:02:59;;;;;;;11.95;4.35;;;;;;;16.91;100.00;101678.97;6298167;28;20049;-75
2021/07/08 04:06:00;;;;;;;8.43;4.28;;;;;;;16.91;100.00;101678.97;6293652;28;20044;-76
2021/07/08 04:09:03;;;;;;;11.07;3.72;;;;;;;16.91;100.00;101671.84;6285265;28;20151;-76
2021/07/08 04:12:05;;;;;;;14.02;4.03;;;;;;;16.94;100.00;101670.78;6294904;28;20056;-76
2021/07/08 04:15:07;;;;;;;10.60;4.13;;;;;;;16.96;100.00;101674.19;6298154;28;20052;-76
2021/07/08 04:18:10;;;;;;;15.70;5.32;;;;;;;16.94;100.00;101684.03;6289329;28;20044;-75
2021/07/08 04:21:12;;;;;;;12.38;5.75;;;;;;;16.94;100.00;101678.75;6272859;28;20044;-75
2021/07/08 04:24:14;;;;;;;10.90;5.32;;;;;;;16.96;100.00;101684.81;6273193;28;20056;-75
2021/07/08 04:27:16;;;;;;;13.00;4.82;;;;;;;16.98;100.00;101673.13;6273083;28;20074;-75
2021/07/08 04:30:20;;;;;;;11.75;4.45;;;;;;;17.04;100.00;101668.41;6272537;28;20052;-76
2021/07/08 04:33:21;;;;;;;13.10;4.57;;;;;;;17.00;100.00;101673.03;6272807;28;20059;-75
2021/07/08 04:36:22;;;;;;;11.20;4.22;;;;;;;16.99;100.00;101687.28;6272632;28;20052;-75
2021/07/08 04:39:25;;;;;;;15.00;4.95;;;;;;;16.97;100.00;101690.03;6272551;28;20132;-76
2021/07/08 04:42:26;;;;;;;10.13;4.18;;;;;;;17.02;100.00;101689.72;6291414;22;20049;-72
2021/07/08 04:45:29;;;;;;;9.93;3.88;;;;;;;17.13;100.00;101703.16;6231522;28;20056;-72
2021/07/08 04:48:30;;;;;;;12.80;5.35;;;;;;;17.08;100.00;101702.63;6247552;28;20419;-72
2021/07/08 04:51:31;;;;;;;12.88;4.63;;;;;;;17.07;100.00;101692.06;6247216;28;20060;-72
2021/07/08 04:54:35;;;;;;;17.48;5.68;;;;;;;17.11;100.00;101694.44;6224276;28;20058;-73
2021/07/08 04:57:36;;;;;;;14.05;5.90;;;;;;;17.15;100.00;101689.78;6208190;28;20050;-73
2021/07/08 05:00:38;;;;;;;11.20;5.40;;;;;;;17.19;100.00;101685.97;6209716;28;20041;-73
2021/07/08 05:03:39;;;;;;;12.07;5.57;;;;;;;17.23;100.00;101682.16;6208261;28;20498;-73
2021/07/08 05:06:40;;;;;;;13.73;6.10;;;;;;;17.29;100.00;101681.72;6212074;28;20049;-72
2021/07/08 05:09:44;;;;;;;14.07;4.95;;;;;;;17.26;100.00;101679.31;6211738;28;20076;-72
2021/07/08 05:12:45;;;;;;;17.73;5.38;;;;;;;17.24;100.00;101682.03;6222545;28;20530;-72
2021/07/08 05:15:47;;;;;;;17.48;5.82;;;;;;;17.24;100.00;101674.06;6222413;28;20046;-72
2021/07/08 05:18:48;;;;;;;12.50;5.15;;;;;;;17.27;100.00;101675.69;6217217;28;20042;-72
2021/07/08 05:21:52;;;;;;;12.15;6.13;;;;;;;17.28;100.00;101682.69;6197407;28;20059;-72
2021/07/08 05:24:54;;;;;;;8.75;4.75;;;;;;;17.31;100.00;101687.81;6198174;28;20129;-72
2021/07/08 05:27:56;;;;;;;13.52;5.35;;;;;;;17.30;100.00;101688.75;6198059;28;20058;-72
2021/07/08 05:30:57;;;;;;;13.15;5.63;;;;;;;17.29;100.00;101686.19;6197870;28;20054;-72
2021/07/08 05:33:59;;;;;;;10.65;6.32;;;;;;;17.30;100.00;101698.53;6197758;28;20407;-72
2021/07/08 05:37:00;;;;;;;13.68;5.97;;;;;;;17.30;100.00;101712.66;6198192;28;20050;-72
2021/07/08 05:40:05;;;;;;;13.38;5.20;;;;;;;17.28;100.00;101717.22;6209600;28;20052;-73
2021/07/08 05:43:06;;;;;;;16.63;8.13;;;;;;;17.30;100.00;101717.97;6222134;28;20054;-73
2021/07/08 05:46:08;;;;;;;18.02;6.43;;;;;;;17.35;100.00;101722.97;6220571;28;20061;-72
2021/07/08 05:49:09;;;;;;;14.23;6.05;;;;;;;17.37;100.00;101727.25;6212263;28;20058;-72
2021/07/08 05:52:11;;;;;;;14.07;5.65;;;;;;;17.42;100.00;101727.78;6211459;28;20056;-73
2021/07/08 05:55:16;;;;;;;17.10;5.97;;;;;;;17.47;100.00;101732.81;6219443;28;20049;-72
2021/07/08 05:58:18;;;;;;;13.38;5.40;;;;;;;17.56;100.00;101726.88;6222193;28;20065;-72
2021/07/08 06:01:19;;;;;;;10.27;5.10;;;;;;;17.52;100.00;101733.34;6221665;28;20069;-72
2021/07/08 06:04:21;;;;;;;13.80;5.95;;;;;;;17.54;100.00;101739.44;6224988;28;20054;-73
2021/07/08 06:07:22;;;;;;;21.65;5.00;;;;;;;17.62;100.00;101744.22;6227014;28;20061;-72
2021/07/08 06:10:25;;;;;;;19.23;6.15;;;;;;;17.65;100.00;101741.34;6227061;28;20046;-72
2021/07/08 06:13:26;;;;;;;12.82;5.65;;;;;;;17.70;100.00;101737.44;6226976;28;20050;-72
2021/07/08 06:16:27;;;;;;;16.65;6.10;;;;;;;17.72;100.00;101746.16;6226491;28;20046;-73
2021/07/08 06:19:29;;;;;;;11.25;4.68;;;;;;;17.77;100.00;101747.69;6226714;28;20050;-72
2021/07/08 06:22:30;;;;;;;10.60;5.03;;;;;;;17.76;100.00;101749.50;6226264;28;20046;-72
2021/07/08 06:25:33;;;;;;;10.50;5.40;;;;;;;17.77;100.00;101755.69;6226527;28;20418;-72
2021/07/08 06:28:34;;;;;;;22.27;5.28;;;;;;;17.74;100.00;101752.25;6226442;28;20057;-72
2021/07/08 06:31:36;;;;;;;14.27;4.82;;;;;;;17.82;100.00;101749.09;6226143;28;20572;-72
2021/07/08 06:34:37;;;;;;;12.45;5.93;;;;;;;17.81;100.00;101750.03;6226120;28;20050;-72
2021/07/08 06:37:38;;;;;;;15.75;6.07;;;;;;;17.89;100.00;101741.53;6226636;28;20050;-74
2021/07/08 06:40:41;;;;;;;14.30;4.75;;;;;;;17.95;100.00;101733.16;6225975;28;20049;-72
2021/07/08 06:43:44;;;;;;;10.05;4.72;;;;;;;18.06;100.00;101738.56;6226071;28;20058;-72
2021/07/08 06:46:50;;;;;;;11.35;5.30;;;;;;;18.08;100.00;101735.81;6225995;28;20485;-72
2021/07/08 06:49:52;;;;;;;9.43;5.00;;;;;;;18.14;100.00;101732.72;6225910;28;20058;-74
2021/07/08 06:52:53;;;;;;;14.70;5.30;;;;;;;18.20;100.00;101741.13;6225772;28;20046;-74
2021/07/08 06:55:56;;;;;;;9.27;5.03;;;;;;;18.25;99.77;101748.78;6225721;28;20049;-74
2021/07/08 06:58:57;;;;;;;15.55;5.40;;;;;;;18.30;98.49;101745.81;6225830;28;20046;-75
2021/07/08 07:01:59;;;;;;;11.15;4.53;;;;;;;18.38;98.04;101749.63;6225340;28;20050;-75
2021/07/08 07:05:00;;;;;;;13.30;5.35;;;;;;;18.39;95.41;101743.34;6225728;28;20049;-74
2021/07/08 07:08:02;;;;;;;9.02;5.07;;;;;;;18.44;96.00;101743.91;6225419;28;20093;-74
2021/07/08 07:11:05;;;;;;;11.10;5.25;;;;;;;18.51;98.13;101755.78;6225495;28;20061;-72
2021/07/08 07:14:06;;;;;;;9.88;5.03;;;;;;;18.61;99.27;101755.13;6225087;28;20045;-74
2021/07/08 07:17:07;;;;;;;10.07;4.30;;;;;;;18.71;100.00;101758.88;6225540;28;20046;-74
2021/07/08 07:20:11;;;;;;;9.52;4.70;;;;;;;18.83;100.00;101759.81;6208332;28;20067;-74
2021/07/08 07:23:12;;;;;;;5.85;4.10;;;;;;;18.90;98.40;101753.94;6225154;28;20081;-74
2021/07/08 07:26:20;;;;;;;6.70;3.78;;;;;;;18.96;95.73;101737.50;6221944;28;20050;-74
2021/07/08 07:29:21;;;;;;;10.55;4.50;;;;;;;19.07;93.82;101750.03;6222855;28;20599;-74
2021/07/08 07:32:23;;;;;;;12.35;3.97;;;;;;;19.07;95.67;101758.03;6223434;28;20065;-74
2021/07/08 07:35:25;;;;;;;10.75;4.63;;;;;;;19.05;95.35;101759.97;6224127;28;20046;-74
2021/07/08 07:38:26;;;;;;;10.60;3.78;;;;;;;19.11;94.24;101748.84;6224631;28;20046;-74
2021/07/08 07:41:29;;;;;;;8.00;4.25;;;;;;;19.17;93.99;101755.56;6224244;28;20469;-74
2021/07/08 07:44:30;;;;;;;7.88;3.83;;;;;;;19.21;95.57;101751.69;6224241;28;20050;-74
2021/07/08 07:47:32;;;;;;;18.67;4.20;;;;;;;19.27;94.30;101743.25;6224012;28;20057;-73
2021/07/08 07:50:33;;;;;;;8.98;3.60;;;;;;;19.33;94.88;101747.28;6221638;28;20054;-74
2021/07/08 07:53:35;;;;;;;11.98;3.53;;;;;;;19.33;92.07;101748.13;6224594;28;20045;-74
2021/07/08 07:56:37;;;;;;;14.13;4.32;;;;;;;19.38;91.48;101759.28;6224302;28;20417;-74
2021/07/08 07:59:39;;;;;;;13.02;5.25;;;;;;;19.43;90.64;101773.13;6224256;28;20056;-74
2021/07/08 08:02:41;;;;;;;8.90;4.80;;;;;;;19.47;90.76;101769.28;6209157;28;20069;-74
2021/07/08 08:05:49;;;;;;;14.38;5.05;;;;;;;19.67;92.02;101750.97;6214152;28;20128;-76
2021/07/08 08:08:49;;;;;;;12.38;4.22;;;;;;;19.75;91.44;101761.91;6199522;28;20423;-75
2021/07/08 08:11:53;;;;;;;9.55;4.60;;;;;;;19.60;90.20;101776.38;6199298;28;20062;-74
2021/07/08 08:14:55;;;;;;;8.20;4.18;;;;;;;19.51;91.57;101778.75;6199315;28;20046;-74
2021/07/08 08:18:00;;;;;;;7.82;4.18;;;;;;;19.44;92.93;101776.63;6201436;28;20051;-74
2021/07/08 08:21:02;;;;;;;15.60;5.35;;;;;;;19.57;93.29;101781.91;6223742;28;20053;-74
2021/07/08 08:24:04;;;;;;;13.38;5.32;;;;;;;19.53;91.79;101789.31;6223748;28;20054;-75
2021/07/08 08:27:07;;;;;;;13.00;5.10;;;;;;;19.74;91.15;101792.22;6222780;28;20417;-74
2021/07/08 08:30:11;;;;;;;9.27;4.50;;;;;;;19.67;92.60;101790.97;6223550;28;20141;-75
2021/07/08 08:33:12;;;;;;;10.68;4.47;;;;;;;19.73;90.49;101801.19;6223415;28;20050;-75
2021/07/08 08:36:14;;;;;;;13.13;4.63;;;;;;;19.92;91.16;101793.47;6211863;28;20518;-76
2021/07/08 08:39:15;;;;;;;9.02;4.70;;;;;;;19.90;92.17;101791.91;6198768;28;20422;-75
2021/07/08 08:42:18;;;;;;;17.50;5.60;;;;;;;19.89;92.65;101788.38;6209766;28;20053;-75
2021/07/08 08:45:20;;;;;;;8.80;4.28;;;;;;;19.94;92.82;101790.69;6241737;28;20050;-74
2021/07/08 08:48:21;;;;;;;11.10;4.72;;;;;;;19.97;91.02;101793.13;6209899;28;20494;-75
2021/07/08 08:51:24;;;;;;;10.68;4.82;;;;;;;20.03;91.44;101795.34;6213128;28;20042;-75
2021/07/08 08:54:26;;;;;;;21.83;5.18;;;;;;;20.54;88.13;101796.78;6222465;28;20508;-74
2021/07/08 08:57:28;;;;;;;10.30;4.35;;;;;;;20.55;87.02;101793.13;6212422;28;20046;-75
2021/07/08 09:00:42;;;;;;;20.70;4.65;;;;;;;20.30;87.61;101781.66;6214214;28;20054;-74
2021/07/08 09:03:44;;;;;;;10.40;3.63;;;;;;;20.25;85.70;101791.84;6222477;28;20068;-75
2021/07/08 09:06:46;;;;;;;13.65;4.00;;;;;;;20.25;84.46;101775.84;6222420;28;20052;-75
2021/07/08 09:09:47;;;;;;;6.70;3.00;;;;;;;20.25;80.59;101773.16;6222481;28;20049;-75
2021/07/08 09:12:58;;;;;;;8.00;2.85;;;;;;;20.17;82.27;101783.59;6221838;28;20057;-75
2021/07/08 09:16:10;;;;;;;11.73;2.67;;;;;;;20.26;80.56;101786.41;6222822;28;20179;-77
2021/07/08 09:19:17;;;;;;;9.65;2.90;;;;;;;20.24;79.11;101782.16;6222066;28;20046;-77
2021/07/08 09:22:29;;;;;;;8.02;2.53;;;;;;;20.25;79.39;101787.34;6222060;28;20049;-77
2021/07/08 09:25:30;;;;;;;29.15;3.10;;;;;;;20.29;78.66;101785.31;6222022;28;20498;-77
2021/07/08 09:28:38;;;;;;;9.15;2.63;;;;;;;20.56;74.22;101786.81;6222128;28;20053;-76
2021/07/08 09:31:39;;;;;;;9.35;2.70;;;;;;;20.50;74.09;101793.50;6221804;28;20061;-75
2021/07/08 09:34:42;;;;;;;10.82;2.28;;;;;;;20.62;73.37;101795.22;6222174;28;20425;-73
2021/07/08 09:37:43;;;;;;;14.05;2.55;;;;;;;20.75;73.25;101782.56;6221940;28;20279;-75
2021/07/08 09:40:46;;;;;;;8.82;3.00;;;;;;;20.89;72.00;101792.16;6221786;28;20052;-75
2021/07/08 09:43:49;;;;;;;9.00;2.60;;;;;;;21.09;72.32;101792.38;6221656;28;20050;-75
2021/07/08 09:46:52;;;;;;;9.50;3.28;;;;;;;21.07;73.02;101787.13;6218583;28;20414;-74
2021/07/08 09:49:53;;;;;;;11.95;3.35;;;;;;;20.99;73.89;101784.25;6205575;28;20050;-75
2021/07/08 09:53:01;;;;;;;7.97;2.83;;;;;;;21.02;76.63;101794.69;6215230;28;20060;-75
2021/07/08 09:56:08;;;;;;;8.00;2.67;;;;;;;20.99;73.73;101798.47;6215886;28;20042;-75
2021/07/08 09:59:10;;;;;;;12.95;3.47;;;;;;;21.02;74.49;101797.34;6221135;28;20041;-75
2021/07/08 10:02:12;;;;;;;17.38;3.40;;;;;;;21.17;71.90;101784.59;6221328;28;20057;-75
2021/07/08 10:05:14;;;;;;;8.45;3.35;;;;;;;21.23;73.81;101802.78;6221329;28;20844;-75
2021/07/08 10:08:21;;;;;;;10.57;3.10;;;;;;;21.66;70.55;101791.25;6220815;28;20052;-74
2021/07/08 10:11:23;;;;;;;15.68;3.70;;;;;;;21.57;70.87;101784.81;6219949;28;20081;-75
2021/07/08 10:14:26;;;;;;;10.15;2.97;;;;;;;21.66;72.25;101776.03;6220925;28;20508;-75
2021/07/08 10:17:31;;;;;;;11.32;2.80;;;;;;;21.62;73.78;101777.28;6221006;28;20050;-74
2021/07/08 10:20:33;;;;;;;7.20;2.75;;;;;;;21.65;69.70;101765.47;6221602;28;20053;-74
2021/07/08 10:23:35;;;;;;;9.35;2.67;;;;;;;21.70;69.62;101776.63;6221184;28;20050;-73
2021/07/08 10:26:39;;;;;;;8.30;2.53;;;;;;;21.67;71.04;101766.22;6221460;28;20054;-73
2021/07/08 10:29:43;;;;;;;11.00;2.78;;;;;;;21.67;70.76;101775.06;6221386;28;20046;-73
2021/07/08 10:32:44;;;;;;;9.73;2.55;;;;;;;22.20;66.41;101768.81;6221092;28;20064;-75
2021/07/08 10:35:47;;;;;;;13.52;2.90;;;;;;;21.95;67.34;101762.88;6221295;28;20046;-74
2021/07/08 10:39:02;;;;;;;8.30;2.30;;;;;;;22.20;66.46;101744.72;6221258;28;20489;-76
2021/07/08 10:42:04;;;;;;;8.50;2.22;;;;;;;22.40;65.11;101751.88;6221176;28;20489;-73
2021/07/08 10:45:07;;;;;;;9.23;2.13;;;;;;;22.31;65.33;101749.16;6263137;22;20049;-75
2021/07/08 10:48:14;;;;;;;7.25;2.03;;;;;;;22.26;67.37;101738.84;6256868;28;20053;-76
2021/07/08 10:51:31;;;;;;;9.07;2.25;;;;;;;22.40;66.25;101746.53;6276004;28;20049;-74
2021/07/08 10:54:33;;;;;;;10.50;2.53;;;;;;;22.53;64.46;101738.28;6261467;28;20071;-76
2021/07/08 10:57:36;;;;;;;8.25;2.72;;;;;;;22.78;64.28;101732.41;6251171;28;20046;-74
2021/07/08 11:00:47;;;;;;;5.68;2.13;;;;;;;22.58;66.45;101721.78;6251717;28;20049;-77
2021/07/08 11:03:50;;;;;;;10.13;3.00;;;;;;;22.71;65.44;101725.03;6250760;28;20056;-74
2021/07/08 11:07:15;;;;;;;7.18;2.13;;;;;;;22.90;64.50;101717.09;6253448;28;20042;-77
2021/07/08 11:10:32;;;;;;;7.38;2.28;;;;;;;23.36;60.15;101710.22;6237658;28;20054;-76
2021/07/08 11:13:36;;;;;;;7.40;2.03;;;;;;;23.46;60.42;101710.22;6239938;28;20057;-73
2021/07/08 11:16:42;;;;;;;8.80;2.30;;;;;;;23.12;61.37;101707.09;6253258;28;20050;-78
2021/07/08 11:19:50;;;;;;;4.20;2.05;;;;;;;23.17;61.81;101702.19;6252017;28;20053;-77
2021/07/08 11:22:51;;;;;;;6.53;1.88;;;;;;;23.44;63.37;101712.22;6249855;28;20605;-77
2021/07/08 11:25:53;;;;;;;7.38;1.90;;;;;;;23.37;58.53;101694.97;6252224;28;20053;-77
2021/07/08 11:29:00;;;;;;;10.32;1.60;;;;;;;23.43;58.53;101700.59;6250782;28;20523;-77
2021/07/08 11:32:18;;;;;;;5.50;2.42;;;;;;;23.92;56.23;101697.88;6251438;28;20515;-77
2021/07/08 11:35:23;;;;;;;4.85;1.60;;;;;;;24.04;53.49;101700.25;6251947;28;20060;-78
2021/07/08 11:38:25;;;;;;;5.55;1.80;;;;;;;24.23;52.20;101696.63;6254369;28;20053;-77
2021/07/08 11:41:27;;;;;;;5.65;1.80;;;;;;;24.42;53.78;101698.41;6251387;28;20049;-77
2021/07/08 11:44:30;;;;;;;5.53;1.60;;;;;;;24.87;53.35;101678.78;6252602;28;20056;-78
2021/07/08 11:47:41;;;;;;;5.57;2.13;;;;;;;24.68;54.71;101684.28;6251642;28;20049;-76
2021/07/08 11:50:43;;;;;;;8.13;2.00;;;;;;;24.45;51.36;101682.00;6252050;28;20060;-77
2021/07/08 11:53:45;;;;;;;6.90;1.60;;;;;;;24.12;52.85;101677.16;6251769;28;20045;-77
2021/07/08 11:56:46;;;;;;;8.65;1.77;;;;;;;23.80;59.64;101683.78;6253242;28;20045;-78
2021/07/08 11:59:48;;;;;;;6.03;1.70;;;;;;;24.27;56.88;101681.91;6253688;28;20053;-77
2021/07/08 12:02:50;;;;;;;6.03;1.80;;;;;;;24.73;55.23;101669.38;6251251;28;20049;-78
2021/07/08 12:05:57;;;;;;;4.78;1.60;;;;;;;25.38;54.14;101661.09;6251552;28;20053;-77
2021/07/08 12:09:01;;;;;;;9.18;1.80;;;;;;;25.58;49.58;101658.25;6251875;28;20049;-79
2021/07/08 12:12:03;;;;;;;5.65;1.85;;;;;;;25.88;51.39;101655.06;6251655;28;20049;-78
2021/07/08 12:15:06;;;;;;;6.78;2.05;;;;;;;25.95;49.19;101647.22;6250199;28;20536;-77
2021/07/08 12:18:09;;;;;;;2.92;1.40;;;;;;;26.03;51.99;101645.41;6251639;28;20041;-77
2021/07/08 12:21:18;;;;;;;4.13;1.50;;;;;;;26.19;49.44;101639.25;6249818;28;20045;-77
2021/07/08 12:24:22;;;;;;;5.43;1.70;;;;;;;26.32;50.28;101644.19;6248838;28;20136;-76
2021/07/08 12:27:24;;;;;;;3.15;1.15;;;;;;;26.76;52.38;101641.31;6250136;28;20045;-74
2021/07/08 12:30:28;;;;;;;3.65;1.40;;;;;;;26.91;48.03;101639.63;6250256;28;20049;-76
2021/07/08 12:33:30;;;;;;;2.95;1.15;;;;;;;27.08;43.64;101637.78;6248981;28;20065;-75
2021/07/08 12:36:32;;;;;;;3.90;1.13;;;;;;;27.30;42.18;101633.59;6248767;28;20404;-77
2021/07/08 12:39:33;;;;;;;4.78;1.10;;;;;;;27.41;44.81;101635.09;6251011;28;20054;-77
2021/07/08 12:42:36;;;;;;;3.03;1.23;;;;;;;27.77;45.78;101636.41;6249033;28;20049;-74
2021/07/08 12:45:39;;;;;;;6.35;1.30;;;;;;;27.80;43.47;101632.53;6247346;28;20049;-72
2021/07/08 12:48:42;;;;;;;4.05;1.10;;;;;;;27.81;43.46;101628.81;6248301;28;20134;-76
2021/07/08 12:51:44;;;;;;;9.15;1.35;;;;;;;27.88;42.09;101634.34;6247192;28;20059;-76
2021/07/08 12:54:45;;;;;;;4.72;1.30;;;;;;;28.17;42.73;101626.50;6237199;28;20177;-76
2021/07/08 12:57:47;;;;;;;6.40;1.58;;;;;;;28.14;43.77;101621.44;6241668;28;20486;-77
2021/07/08 13:00:49;;;;;;;5.07;1.33;;;;;;;28.21;41.26;101622.41;6231770;28;20056;-78
2021/07/08 13:03:52;;;;;;;2.38;1.13;;;;;;;28.21;44.07;101619.72;6223503;28;20061;-77
2021/07/08 13:06:58;;;;;;;5.25;1.30;;;;;;;28.54;44.91;101622.28;6232851;28;20050;-78
2021/07/08 13:10:04;;;;;;;9.43;1.55;;;;;;;27.69;44.42;101616.66;6246323;28;20053;-77
2021/07/08 13:13:06;;;;;;;3.90;1.33;;;;;;;27.65;44.37;101618.00;6247942;28;20052;-77
2021/07/08 13:16:17;;;;;;;6.32;1.42;;;;;;;28.08;46.74;101615.91;6248432;28;20045;-78
2021/07/08 13:19:24;;;;;;;3.80;1.60;;;;;;;28.11;45.02;101624.47;6240592;28;20077;-76
2021/07/08 13:22:25;;;;;;;5.78;1.50;;;;;;;27.99;45.83;101617.78;6227940;28;20057;-76
2021/07/08 13:25:27;;;;;;;5.28;1.65;;;;;;;27.83;45.90;101615.97;6236273;28;20521;-76
2021/07/08 13:28:30;;;;;;;5.55;1.30;;;;;;;28.42;42.06;101627.22;6247175;28;20595;-75
2021/07/08 13:31:33;;;;;;;5.53;1.88;;;;;;;28.23;45.60;101631.19;6238226;28;20050;-75
2021/07/08 13:34:36;;;;;;;3.42;1.48;;;;;;;28.66;42.00;101625.38;6242557;28;20046;-76
2021/07/08 13:37:41;;;;;;;4.00;1.40;;;;;;;28.65;42.47;101619.13;6246568;28;20041;-76
2021/07/08 13:40:58;;;;;;;6.40;1.55;;;;;;;28.42;44.33;101619.13;6246747;28;20417;-78
2021/07/08 13:44:01;;;;;;;4.45;1.50;;;;;;;28.61;41.45;101614.25;6246472;28;20053;-78
2021/07/08 13:47:05;;;;;;;3.20;1.35;;;;;;;28.23;43.27;101611.41;6247234;28;20493;-78
2021/07/08 13:50:14;;;;;;;2.63;1.45;;;;;;;28.38;43.41;101609.66;6246551;28;20088;-76
2021/07/08 13:53:15;;;;;;;4.72;1.30;;;;;;;28.32;41.78;101611.19;6246624;28;20061;-76
2021/07/08 13:56:18;;;;;;;3.67;1.30;;;;;;;28.19;42.58;101604.69;6246676;28;20060;-76
2021/07/08 13:59:21;;;;;;;4.95;1.50;;;;;;;28.08;42.07;101602.38;6246617;28;20068;-76